Austin, Missouri
Current Conditions -  °F | °C
As of 4:53 PM on Wednesday 26 Nov 2014 (Local Time) from KOJC Reporting Station
Overcast Overcast  
Wind Chill: -6°   Ceiling: 2000
Heat Index:   Visibility: 10mi
Dew Point: -3°   Wind: 20mph
Humidity: 75%   Direction: 320°NW
Pressure: 30.16"   Gusts: 30mph
Location:  38.5148°N, 94.3768°W
Report Text: KOJC 262253Z 32017G26KT 10SM OVC020 01/M03 A3016 RMK AO2 PK WND 32030/2228 SLP221 T00061033
Loading
Personal Weather Stations






























Interactive Weather Map New forecast layout! Learn more

10-Day Weather Forecast

Advertisements
Track Severe Weather on mobile